Strona główna
METAR-TAF:

METAR-TAF

Lotnisko :

Port lotniczy Dakar

Dakar, Senegal

Szerokość geograficzna: 14-44N, Długość geograficzna: 017-30W, wysokość: 27 m

Aktualna obserwacja pogody

Raport powstał 1 godzina i 40 minut temu, godzina 03:00 UTC
Wiatr 10 kt od północ
Temperatura 24°C
Wilgotność 83%
Ciśnienie 1009 hPa
Widzialność: 8000 m

METAR: GOOY 120300Z 36010KT 8000 NSC 24/21 Q1009

czas: 04:40 (04:40 UTC)

Prognoza

Raport powstał 5 godziny i 10 minut temu, godzina 23:30 UTC
Prognoza ważna od 12 godzina 00 UTC do 13 godzina 06 UTC
Wiatr 10 kt od północ
Widzialność 10 km lub więcej
Brak chmur poniżej 1500 m i brak chmur cumulonimbus

TAF: GOOY 112330Z 1200/1306 36010KT CAVOK

Obserwacja i prognoza pogody dla ponad 4000 lotnisk (raport METAR i TAF).

Dostępne stacje oznaczono żółtymi i czerwonymi punktami na mapie.

Najedź kursorem aby zobaczyć nazwę stacji.

Kliknij aby zobaczyć obserwacje i prognozy pogody.

Aby zmienić mapę: kliknij na zielony przycisk z czarnym krzyżykiem, aby powiększyć; na zielony przycisk z myślnikiem, aby pomniejszyć; na zielone strzałki, aby przejść do map sąsiednich.


METAR-TAF: